Time;durP1;ratioP1;P1;durP2;ratioP2;P2;SDS_P1;SDS_P2;PMS_P1;PMS_P2;Temp;Humidity;BMP_temperature;BMP_pressure;BME280_temperature;BME280_humidity;BME280_pressure;Samples;Min_cycle;Max_cycle;Signal;HPM_P1;HPM_P2
2022/11/08 00:01:45;;;;;;;8.60;2.97;;;11.30;99.90;;;11.44;85.80;100862.38;4861456;29;20399;-70
2022/11/08 00:04:17;;;;;;;4.57;2.13;;;11.40;99.90;;;11.53;85.10;100866.53;4897220;29;20405;-70
2022/11/08 00:15:08;;;;;;;4.20;3.13;;;11.20;99.90;;;11.19;86.82;100862.16;4873620;29;20429;-71
2022/11/08 00:17:38;;;;;;;9.30;2.63;;;11.20;99.90;;;11.37;86.37;100871.56;4886102;29;20413;-72
2022/11/08 00:20:09;;;;;;;5.60;2.07;;;11.20;99.90;;;11.31;86.23;100862.38;4882416;29;20803;-70
2022/11/08 00:22:38;;;;;;;6.70;2.30;;;11.20;99.90;;;11.21;86.74;100861.97;4875987;29;20493;-70
2022/11/08 00:25:08;;;;;;;10.47;2.70;;;11.20;99.90;;;11.05;87.59;100867.75;4887170;29;20933;-70
2022/11/08 00:27:37;;;;;;;4.60;2.30;;;11.10;99.90;;;11.02;87.96;100868.19;4883808;29;20822;-71
2022/11/08 00:30:07;;;;;;;3.90;2.70;;;11.00;99.90;;;10.97;88.23;100868.81;4886380;29;20505;-72
2022/11/08 00:32:37;;;;;;;4.90;2.57;;;11.00;99.90;;;10.90;88.71;100870.66;4884497;29;20451;-71
2022/11/08 00:35:08;;;;;;;3.30;2.57;;;10.90;99.90;;;10.89;89.44;100877.13;4872646;29;20547;-71
2022/11/08 00:37:37;;;;;;;7.10;2.60;;;10.90;99.90;;;10.83;89.31;100870.66;4881853;29;20441;-70
2022/11/08 00:40:07;;;;;;;3.53;3.20;;;10.90;99.90;;;10.89;89.40;100872.50;4875566;29;20421;-70
2022/11/08 00:42:38;;;;;;;5.53;2.27;;;10.80;99.90;;;10.99;89.04;100871.31;4873982;29;20447;-70
2022/11/08 00:45:09;;;;;;;10.60;3.00;;;10.90;99.90;;;10.88;89.00;100873.59;4865960;29;20418;-72
2022/11/08 00:47:39;;;;;;;7.70;3.00;;;10.90;99.90;;;10.81;89.92;100878.13;4886105;29;21035;-70
2022/11/08 00:50:09;;;;;;;5.27;3.20;;;10.80;99.90;;;10.82;89.84;100876.25;4881301;29;20405;-71
2022/11/08 00:52:38;;;;;;;4.60;2.47;;;10.80;99.90;;;10.97;89.23;100876.94;4879425;29;20445;-71
2022/11/08 00:55:08;;;;;;;2.93;1.80;;;10.90;99.90;;;10.94;89.42;100879.22;4868749;29;20401;-71
2022/11/08 00:57:37;;;;;;;6.47;3.07;;;10.90;99.90;;;10.99;89.02;100876.72;4876159;29;20446;-70
2022/11/08 01:00:26;;;;;;;16.43;3.10;;;10.90;99.90;;;10.98;89.26;100878.59;4883001;29;20431;-70
2022/11/08 01:05:39;;;;;;;7.80;2.30;;;10.90;99.90;;;11.16;88.19;100875.28;4876812;29;20449;-71
2022/11/08 01:08:08;;;;;;;6.20;2.30;;;11.00;99.90;;;11.05;88.75;100878.59;4889888;29;20977;-69
2022/11/08 01:10:38;;;;;;;6.30;3.00;;;11.00;99.90;;;11.09;88.35;100866.31;4891169;29;20986;-70
2022/11/08 01:13:06;;;;;;;7.97;2.40;;;11.00;99.90;;;11.16;87.86;100876.13;4884870;29;20861;-71
2022/11/08 01:15:37;;;;;;;3.10;2.20;;;11.00;99.90;;;11.10;88.39;100870.69;4877697;29;20437;-69
2022/11/08 01:18:09;;;;;;;4.20;2.20;;;11.00;99.90;;;11.13;87.87;100868.44;4878859;29;20491;-70
2022/11/08 01:20:40;;;;;;;4.60;2.40;;;11.00;99.90;;;11.16;88.27;100867.16;4865007;29;20474;-71
2022/11/08 01:23:10;;;;;;;6.23;2.57;;;11.00;99.90;;;11.11;88.42;100872.38;4885216;29;20877;-70
2022/11/08 01:25:41;;;;;;;10.53;2.77;;;11.00;99.90;;;11.09;88.18;100872.56;4888106;29;20522;-70
2022/11/08 01:28:10;;;;;;;4.77;2.80;;;11.00;99.90;;;11.01;88.73;100861.94;4876484;29;20474;-71
2022/11/08 01:30:42;;;;;;;4.00;2.27;;;11.00;99.90;;;11.09;88.20;100864.44;4887902;29;20422;-71
2022/11/08 01:33:14;;;;;;;8.83;3.17;;;11.00;99.90;;;10.99;88.53;100860.47;4871020;29;20455;-71
2022/11/08 01:35:46;;;;;;;3.30;2.33;;;10.90;99.90;;;10.85;89.29;100856.88;4871020;29;20434;-70
2022/11/08 01:38:15;;;;;;;5.80;2.60;;;10.90;99.90;;;10.70;90.33;100854.34;4882577;29;20932;-70
2022/11/08 01:40:47;;;;;;;4.80;2.80;;;10.70;99.90;;;10.74;90.16;100855.63;4877829;29;20466;-69
2022/11/08 01:43:42;;;;;;;6.20;2.40;;;10.70;99.90;;;10.65;90.75;100856.03;4883116;29;20526;-70
2022/11/08 01:46:44;;;;;;;4.70;2.60;;;10.60;99.90;;;10.74;90.24;100854.81;4856448;29;20497;-70
2022/11/08 01:49:46;;;;;;;4.60;2.37;;;10.70;99.90;;;10.62;90.90;100856.41;4881620;29;20896;-71
2022/11/08 01:52:27;;;;;;;3.70;3.40;;;10.70;99.90;;;10.77;90.76;100855.22;4882860;29;20674;-71
2022/11/08 01:55:08;;;;;;;9.70;2.73;;;10.70;99.90;;;10.73;91.26;100859.38;4878023;29;20448;-70
2022/11/08 01:57:45;;;;;;;5.40;2.60;;;10.70;99.90;;;10.86;90.24;100861.28;4887947;29;20513;-71
2022/11/08 02:00:16;;;;;;;5.67;2.60;;;10.70;99.90;;;10.89;90.38;100856.28;4883416;29;20412;-72
2022/11/08 02:02:54;;;;;;;5.03;3.27;;;10.80;99.90;;;10.86;90.61;100859.41;4889562;29;20435;-69
2022/11/08 02:05:26;;;;;;;3.63;2.53;;;10.80;99.90;;;11.10;89.11;100859.84;4882611;29;20439;-69
2022/11/08 02:08:00;;;;;;;5.00;3.03;;;10.90;99.90;;;11.25;88.16;100864.03;4882201;29;20975;-70
2022/11/08 02:10:35;;;;;;;5.27;3.03;;;11.00;99.90;;;11.33;87.71;100857.56;4886439;29;20469;-70
2022/11/08 02:13:07;;;;;;;11.30;2.60;;;11.10;99.90;;;11.29;87.75;100859.88;4894864;29;20456;-72
2022/11/08 02:15:43;;;;;;;3.60;2.30;;;11.20;99.90;;;11.33;87.43;100846.75;4889372;29;20442;-71
2022/11/08 02:18:13;;;;;;;5.63;2.70;;;11.20;99.90;;;11.18;88.02;100855.06;4872628;29;20510;-70
2022/11/08 02:20:58;;;;;;;6.40;2.30;;;11.10;99.90;;;11.17;88.06;100842.59;4884231;29;20931;-70
2022/11/08 02:23:32;;;;;;;4.03;2.40;;;11.10;99.90;;;11.17;87.80;100845.28;4881411;29;20848;-71
2022/11/08 02:26:02;;;;;;;5.03;2.77;;;11.10;99.90;;;11.12;88.40;100846.94;4895247;29;20432;-71
2022/11/08 02:28:39;;;;;;;3.53;2.10;;;11.10;99.90;;;11.17;88.32;100858.00;4885699;29;20442;-70
2022/11/08 02:31:09;;;;;;;5.07;2.13;;;11.10;99.90;;;11.13;88.38;100848.63;4879302;29;20434;-69
2022/11/08 02:33:39;;;;;;;10.13;3.27;;;11.10;99.90;;;11.11;88.33;100850.69;4887207;29;21170;-69
2022/11/08 02:36:11;;;;;;;6.07;3.07;;;11.10;99.90;;;11.16;88.53;100854.47;4881915;29;20837;-71
2022/11/08 02:38:46;;;;;;;4.67;2.70;;;11.10;99.90;;;11.13;88.46;100854.03;4876848;29;20526;-69
2022/11/08 02:41:16;;;;;;;4.30;2.83;;;11.10;99.90;;;11.19;88.38;100854.03;4892367;29;20578;-69
2022/11/08 02:43:44;;;;;;;4.83;2.70;;;11.10;99.90;;;11.33;87.66;100860.28;4881380;29;20414;-70
2022/11/08 02:46:13;;;;;;;5.87;2.57;;;11.10;99.90;;;11.29;87.61;100848.19;4890125;29;20538;-71
2022/11/08 02:48:42;;;;;;;9.80;2.90;;;11.10;99.90;;;11.17;88.15;100844.47;4877983;29;20442;-71
2022/11/08 02:51:10;;;;;;;5.43;2.13;;;11.10;99.90;;;11.28;87.51;100857.38;4888197;29;20521;-71
2022/11/08 02:53:39;;;;;;;7.60;3.13;;;11.10;99.90;;;11.06;88.35;100854.03;4891810;29;20802;-70
2022/11/08 02:56:08;;;;;;;5.23;3.30;;;11.10;99.90;;;10.92;89.12;100846.91;4881101;29;20449;-70
2022/11/08 02:58:38;;;;;;;5.57;3.37;;;11.00;99.90;;;11.02;88.82;100846.53;4881462;29;20414;-71
2022/11/08 03:01:07;;;;;;;3.90;2.93;;;11.00;99.90;;;10.87;89.52;100849.41;4888201;29;20447;-71
2022/11/08 03:03:36;;;;;;;7.30;3.30;;;10.90;99.90;;;10.83;90.08;100854.41;4883302;29;20450;-70
2022/11/08 03:06:05;;;;;;;3.70;2.67;;;10.80;99.90;;;10.70;90.55;100848.94;4892690;29;20533;-70
2022/11/08 03:08:33;;;;;;;10.00;3.43;;;10.70;99.90;;;10.64;91.29;100843.53;4889444;29;20451;-71
2022/11/08 03:11:02;;;;;;;5.10;4.13;;;10.70;99.90;;;10.64;91.81;100838.13;4872768;29;20454;-71
2022/11/08 03:13:31;;;;;;;4.83;3.07;;;10.60;99.90;;;10.68;91.73;100844.78;4873420;29;20961;-70
2022/11/08 03:16:04;;;;;;;8.70;3.80;;;10.70;99.90;;;10.68;91.84;100851.03;4880523;29;20471;-70
2022/11/08 03:18:32;;;;;;;3.97;3.57;;;10.70;99.90;;;10.82;91.63;100855.44;4882133;29;20409;-72
2022/11/08 03:21:02;;;;;;;10.00;3.67;;;10.70;99.90;;;10.86;91.05;100848.56;4883145;29;20417;-71
2022/11/08 03:23:31;;;;;;;5.90;4.30;;;10.80;99.90;;;10.86;91.32;100851.28;4886573;29;20449;-69
2022/11/08 03:26:02;;;;;;;3.90;3.23;;;10.80;99.90;;;10.95;90.74;100856.50;4879481;29;20434;-70
2022/11/08 03:28:32;;;;;;;5.47;3.90;;;10.80;99.90;;;10.92;90.52;100846.09;4880723;29;20475;-70
2022/11/08 03:31:01;;;;;;;4.83;4.30;;;10.80;99.90;;;10.97;90.77;100849.00;4880610;29;20410;-72
2022/11/08 03:33:31;;;;;;;5.37;3.50;;;10.80;99.90;;;11.12;89.40;100853.22;4882501;29;20620;-69
2022/11/08 03:36:00;;;;;;;7.97;3.50;;;10.90;99.90;;;11.08;90.07;100851.97;4892427;29;20438;-71
2022/11/08 03:38:28;;;;;;;6.60;3.73;;;11.00;99.90;;;11.08;89.54;100851.97;4887856;29;20428;-70
2022/11/08 03:40:57;;;;;;;8.87;3.33;;;11.00;99.90;;;11.15;89.14;100846.53;4888590;29;20430;-70
2022/11/08 03:43:26;;;;;;;5.40;2.97;;;11.00;99.90;;;11.03;89.69;100842.78;4890479;29;20452;-70
2022/11/08 03:45:55;;;;;;;5.03;3.37;;;11.00;99.90;;;11.04;89.83;100841.72;4893152;29;20470;-70
2022/11/08 03:48:24;;;;;;;6.93;3.63;;;11.00;99.90;;;11.08;89.53;100835.72;4901418;29;20988;-71
2022/11/08 03:50:54;;;;;;;5.27;3.60;;;11.00;99.90;;;10.88;89.98;100835.69;4894825;29;20424;-70
2022/11/08 03:53:22;;;;;;;9.47;3.93;;;10.90;99.90;;;10.72;90.69;100829.81;4879303;29;21022;-72
2022/11/08 03:55:51;;;;;;;3.40;2.30;;;10.80;99.90;;;10.58;91.79;100833.50;4885497;29;20564;-71
2022/11/08 03:58:20;;;;;;;4.50;2.93;;;10.70;99.90;;;10.42;92.51;100845.53;4884900;29;20439;-71
2022/11/08 04:00:49;;;;;;;6.47;3.00;;;10.60;99.90;;;10.22;93.48;100839.19;4882950;29;20816;-71
2022/11/08 04:03:18;;;;;;;5.97;2.87;;;10.40;99.90;;;10.13;94.15;100838.50;4884278;29;20515;-69
2022/11/08 04:05:46;;;;;;;7.93;2.43;;;10.30;99.90;;;10.13;95.65;100829.53;4887517;29;20845;-70
2022/11/08 04:08:16;;;;;;;6.53;2.83;;;10.20;99.90;;;10.17;95.51;100837.09;4880205;29;20481;-69
2022/11/08 04:10:46;;;;;;;7.50;2.83;;;10.20;99.90;;;10.12;95.16;100834.13;4876613;29;20442;-70
2022/11/08 04:16:01;;;;;;;3.20;2.90;;;10.20;99.90;;;10.15;94.67;100839.16;4879806;29;20425;-69
2022/11/08 04:21:23;;;;;;;4.33;3.90;;;10.20;99.90;;;10.08;95.76;100840.13;4829779;29;20462;-72
2022/11/08 04:23:53;;;;;;;4.23;3.10;;;10.10;99.90;;;9.82;96.75;100838.97;4884372;29;20439;-70
2022/11/08 04:26:22;;;;;;;4.63;3.00;;;10.00;99.90;;;9.78;97.64;100837.66;4884132;29;20446;-72
2022/11/08 04:28:51;;;;;;;7.63;3.07;;;9.90;99.90;;;9.81;98.22;100850.81;4882357;29;20462;-71
2022/11/08 04:31:20;;;;;;;9.33;4.10;;;9.90;99.90;;;9.92;97.29;100850.22;4886827;29;20436;-69
2022/11/08 04:33:49;;;;;;;18.67;3.93;;;9.90;99.90;;;9.83;98.13;100843.31;4884916;29;20414;-71
2022/11/08 04:36:18;;;;;;;11.97;3.30;;;9.90;99.90;;;9.94;97.93;100839.22;4878855;29;20754;-71
2022/11/08 04:38:49;;;;;;;7.43;2.83;;;9.90;99.90;;;9.84;98.18;100838.75;4895601;29;20437;-71
2022/11/08 04:41:21;;;;;;;15.73;2.63;;;9.90;99.90;;;9.81;98.69;100837.28;4891146;29;20617;-71
2022/11/08 04:43:51;;;;;;;7.43;4.70;;;9.90;99.90;;;9.91;98.09;100831.53;4891402;29;20461;-71
2022/11/08 04:46:22;;;;;;;3.50;2.93;;;9.90;99.90;;;9.94;98.48;100837.34;4867554;29;20450;-70
2022/11/08 04:48:55;;;;;;;7.20;2.37;;;9.90;99.90;;;9.98;97.48;100843.19;4889918;29;21032;-71
2022/11/08 04:51:27;;;;;;;5.00;2.70;;;9.90;99.90;;;9.91;98.30;100837.78;4888070;29;20490;-71
2022/11/08 04:53:58;;;;;;;9.00;3.07;;;9.90;99.90;;;9.90;97.71;100838.78;4890816;29;20462;-70
2022/11/08 04:56:31;;;;;;;14.73;3.17;;;9.90;99.90;;;9.96;98.08;100843.41;4883047;29;20961;-71
2022/11/08 04:59:01;;;;;;;3.97;2.83;;;9.90;99.90;;;10.01;98.14;100846.34;4883217;29;20481;-71
2022/11/08 05:01:31;;;;;;;5.97;3.20;;;10.00;99.90;;;9.99;97.97;100844.88;4882780;29;20781;-71
2022/11/08 05:04:00;;;;;;;7.53;2.93;;;10.00;99.90;;;10.07;97.41;100842.00;4871969;29;20533;-71
2022/11/08 05:06:31;;;;;;;5.30;3.23;;;10.00;99.90;;;10.10;97.26;100848.88;4888506;29;20998;-72
2022/11/08 05:09:00;;;;;;;6.90;2.77;;;10.00;99.90;;;10.03;97.87;100843.44;4884258;29;20573;-70
2022/11/08 05:11:31;;;;;;;12.37;2.73;;;10.00;99.90;;;9.97;97.57;100846.97;4880554;29;21031;-71
2022/11/08 05:14:02;;;;;;;4.17;3.73;;;10.00;99.90;;;9.99;97.26;100843.00;4887281;29;20828;-70
2022/11/08 05:16:32;;;;;;;7.40;3.87;;;10.00;99.90;;;9.83;98.32;100837.91;4886717;29;20466;-71
2022/11/08 05:19:01;;;;;;;5.53;3.20;;;9.90;99.90;;;9.82;99.08;100844.38;4886293;29;20416;-72
2022/11/08 05:24:38;;;;;;;2.90;2.70;;;9.80;99.90;;;9.74;98.97;100836.41;4873533;29;20928;-71
2022/11/08 05:27:09;;;;;;;7.77;4.10;;;9.80;99.90;;;9.75;98.89;100843.47;4889978;29;20437;-69
2022/11/08 05:29:39;;;;;;;6.10;3.57;;;9.80;99.90;;;9.72;99.46;100838.47;4879009;29;20453;-73
2022/11/08 05:32:10;;;;;;;5.10;2.80;;;9.80;99.90;;;9.50;100.00;100836.84;4877041;29;20481;-71
2022/11/08 05:34:38;;;;;;;7.20;2.87;;;9.60;99.90;;;9.49;100.00;100837.88;4893900;29;20940;-70
2022/11/08 05:37:07;;;;;;;5.60;3.80;;;9.60;99.90;;;9.58;100.00;100842.13;4887592;29;20870;-69
2022/11/08 05:39:36;;;;;;;11.23;3.87;;;9.60;99.90;;;9.70;100.00;100837.84;4889394;29;20453;-70
2022/11/08 05:42:09;;;;;;;10.23;3.03;;;9.60;99.90;;;9.67;100.00;100840.94;4886262;29;20417;-70
2022/11/08 05:44:38;;;;;;;5.60;3.10;;;9.70;99.90;;;9.73;100.00;100832.03;4890112;29;20554;-71
2022/11/08 05:47:07;;;;;;;9.37;3.37;;;9.70;99.90;;;9.67;100.00;100834.69;4891177;29;20496;-70
2022/11/08 05:49:35;;;;;;;7.00;3.20;;;9.70;99.90;;;9.76;99.99;100833.50;4889737;29;20478;-70
2022/11/08 05:52:05;;;;;;;4.60;3.73;;;9.70;99.90;;;9.60;100.00;100834.66;4890942;29;20779;-71
2022/11/08 05:54:34;;;;;;;7.47;5.03;;;9.60;99.90;;;9.61;100.00;100836.31;4884203;29;20450;-71
2022/11/08 05:57:03;;;;;;;7.70;4.00;;;9.60;99.90;;;9.54;100.00;100830.84;4892381;29;20547;-71
2022/11/08 05:59:33;;;;;;;6.73;3.63;;;9.60;99.90;;;9.69;100.00;100840.72;4878810;29;20417;-71
2022/11/08 06:02:02;;;;;;;6.57;3.17;;;9.60;99.90;;;9.55;100.00;100842.50;4885701;29;20439;-69
2022/11/08 06:04:31;;;;;;;11.53;5.23;;;9.60;99.90;;;9.47;100.00;100834.56;4879873;29;20410;-70
2022/11/08 06:06:59;;;;;;;4.17;3.30;;;9.50;99.90;;;9.53;100.00;100834.63;4885233;29;20464;-70
2022/11/08 06:09:28;;;;;;;6.07;4.20;;;9.60;99.90;;;9.50;100.00;100844.97;4890427;29;20440;-71
2022/11/08 06:11:56;;;;;;;8.73;4.23;;;9.50;99.90;;;9.51;100.00;100842.06;4898413;29;20926;-70
2022/11/08 06:14:25;;;;;;;13.20;4.67;;;9.50;99.90;;;9.34;100.00;100845.25;4885299;29;20529;-70
2022/11/08 06:16:55;;;;;;;9.63;5.00;;;9.40;99.90;;;9.41;100.00;100846.97;4874508;29;20467;-70
2022/11/08 06:19:24;;;;;;;4.57;4.03;;;9.40;99.90;;;9.50;100.00;100855.75;4874371;29;20428;-70
2022/11/08 06:21:53;;;;;;;12.67;5.40;;;9.50;99.90;;;9.51;100.00;100854.75;4883349;29;20533;-69
2022/11/08 06:24:21;;;;;;;6.27;3.90;;;9.50;99.90;;;9.51;100.00;100852.03;4893695;29;20453;-69
2022/11/08 06:26:50;;;;;;;9.33;4.97;;;9.50;99.90;;;9.50;100.00;100858.47;4880556;29;20489;-71
2022/11/08 06:29:18;;;;;;;12.70;4.87;;;9.50;99.90;;;9.45;100.00;100852.81;4878605;29;20410;-70
2022/11/08 06:31:47;;;;;;;6.80;4.33;;;9.40;99.90;;;9.35;100.00;100861.25;4891921;29;20414;-70
2022/11/08 06:34:17;;;;;;;11.07;5.07;;;9.40;99.90;;;9.25;100.00;100862.59;4891618;29;21044;-71
2022/11/08 06:36:46;;;;;;;6.37;3.93;;;9.30;99.90;;;9.30;100.00;100865.56;4878723;29;20513;-71
2022/11/08 06:39:15;;;;;;;13.27;5.70;;;9.30;99.90;;;9.23;100.00;100867.38;4878886;29;20451;-71
2022/11/08 06:41:43;;;;;;;6.80;4.00;;;9.30;99.90;;;9.13;100.00;100865.84;4894328;29;20409;-72
2022/11/08 06:44:12;;;;;;;8.27;3.63;;;9.20;99.90;;;9.07;100.00;100861.22;4894470;29;20418;-72
2022/11/08 06:46:40;;;;;;;9.90;4.90;;;9.20;99.90;;;9.27;100.00;100864.09;4878384;29;20422;-72
2022/11/08 06:49:09;;;;;;;5.70;4.00;;;9.20;99.90;;;9.22;100.00;100874.66;4877831;29;20857;-72
2022/11/08 06:51:39;;;;;;;9.10;5.63;;;9.20;99.90;;;9.28;100.00;100873.03;4879530;29;20446;-71
2022/11/08 06:54:08;;;;;;;6.90;5.03;;;9.30;99.90;;;9.15;100.00;100866.47;4896402;29;20453;-71
2022/11/08 06:56:41;;;;;;;6.77;4.00;;;9.20;99.90;;;9.12;100.00;100869.56;4895879;29;20514;-71
2022/11/08 06:59:10;;;;;;;10.53;4.23;;;9.20;99.90;;;9.25;100.00;100860.75;4881948;29;20470;-71
2022/11/08 07:01:39;;;;;;;15.23;5.00;;;9.20;99.90;;;9.14;100.00;100870.22;4883675;29;20438;-71
2022/11/08 07:04:13;;;;;;;11.10;5.30;;;9.20;99.90;;;9.21;100.00;100872.97;4877469;29;20431;-71
2022/11/08 07:06:43;;;;;;;7.97;5.00;;;9.20;99.90;;;9.20;100.00;100862.38;4876991;29;20540;-72
2022/11/08 07:09:12;;;;;;;6.47;5.03;;;9.20;99.90;;;9.23;100.00;100860.13;4876885;29;20451;-70
2022/11/08 07:11:40;;;;;;;13.90;4.93;;;9.20;99.90;;;9.40;100.00;100868.78;4879380;29;20478;-72
2022/11/08 07:14:09;;;;;;;7.30;5.33;;;9.30;99.90;;;9.59;100.00;100865.38;4895101;29;20434;-71
2022/11/08 07:16:38;;;;;;;12.77;4.93;;;9.40;99.90;;;9.48;100.00;100863.25;4896126;29;20433;-69
2022/11/08 07:19:06;;;;;;;9.90;4.33;;;9.40;99.90;;;9.61;100.00;100866.03;4896428;29;21005;-69
2022/11/08 07:21:35;;;;;;;10.30;4.60;;;9.50;99.90;;;9.91;98.90;100856.69;4896283;29;20412;-72
2022/11/08 07:24:05;;;;;;;5.30;3.90;;;9.70;99.90;;;9.84;98.58;100860.38;4873976;29;20446;-71
2022/11/08 07:26:34;;;;;;;5.73;4.17;;;9.70;99.90;;;9.81;98.76;100856.22;4888789;29;20437;-70
2022/11/08 07:29:02;;;;;;;8.33;5.03;;;9.70;99.90;;;9.79;98.60;100850.16;4886380;29;20429;-70
2022/11/08 07:31:31;;;;;;;6.83;6.13;;;9.80;99.90;;;10.03;99.00;100862.34;4878136;29;21013;-70
2022/11/08 07:34:00;;;;;;;6.33;4.10;;;9.80;99.90;;;10.15;97.44;100854.53;4895542;29;20443;-71
2022/11/08 07:36:29;;;;;;;11.50;4.50;;;10.00;99.90;;;10.23;95.72;100868.75;4881752;29;20487;-72
2022/11/08 07:38:57;;;;;;;11.03;4.27;;;10.10;99.90;;;10.37;94.72;100865.06;4877422;29;20430;-72
2022/11/08 07:41:34;;;;;;;13.43;6.70;;;10.20;99.90;;;10.45;94.31;100867.63;4865414;29;20417;-71
2022/11/08 07:44:02;;;;;;;13.70;5.33;;;10.20;99.90;;;10.55;93.37;100861.00;4877911;29;20418;-72
2022/11/08 07:46:31;;;;;;;10.63;5.30;;;10.40;99.90;;;10.57;93.42;100856.19;4889515;29;20854;-71
2022/11/08 07:49:00;;;;;;;4.90;4.40;;;10.40;99.90;;;10.67;93.04;100871.00;4882153;29;20418;-70
2022/11/08 07:51:28;;;;;;;10.87;4.90;;;10.50;99.90;;;10.77;92.70;100871.47;4886742;29;20471;-72
2022/11/08 07:53:57;;;;;;;8.77;6.00;;;10.60;99.90;;;10.95;91.22;100868.16;4883395;29;20470;-70
2022/11/08 07:56:30;;;;;;;8.10;4.67;;;10.70;99.90;;;11.04;90.24;100866.09;4883748;29;20429;-71
2022/11/08 07:59:00;;;;;;;5.90;3.47;;;10.80;99.90;;;11.08;90.24;100861.94;4876553;29;20451;-70
2022/11/08 08:01:29;;;;;;;7.03;4.57;;;10.90;99.90;;;11.11;89.50;100861.53;4878001;29;20414;-70
2022/11/08 08:03:58;;;;;;;6.63;4.07;;;10.90;99.90;;;11.05;90.04;100863.19;4884404;29;20474;-71
2022/11/08 08:06:27;;;;;;;7.37;3.90;;;10.90;99.90;;;11.22;88.90;100850.09;4888804;29;20855;-70
2022/11/08 08:08:55;;;;;;;7.20;5.10;;;11.00;99.90;;;11.38;88.47;100846.13;4878220;29;20443;-71
2022/11/08 08:11:24;;;;;;;7.13;4.10;;;11.20;99.90;;;11.41;87.72;100843.84;4889233;29;20446;-71
2022/11/08 08:14:04;;;;;;;5.67;3.90;;;11.20;99.90;;;11.60;86.43;100851.13;4881516;29;20442;-69
2022/11/08 08:16:35;;;;;;;8.47;5.30;;;11.40;99.90;;;11.69;86.40;100849.88;4877199;29;20622;-71
2022/11/08 08:19:04;;;;;;;9.23;4.03;;;11.50;99.90;;;11.72;85.73;100844.03;4868375;29;20925;-70
2022/11/08 08:21:33;;;;;;;6.63;4.33;;;11.50;99.90;;;11.73;85.83;100840.28;4879852;29;20489;-71
2022/11/08 08:24:01;;;;;;;7.23;4.00;;;11.50;99.90;;;11.69;86.19;100839.03;4892390;29;20853;-71
2022/11/08 08:26:31;;;;;;;8.93;5.13;;;11.50;99.90;;;11.87;85.10;100835.69;4888898;29;20509;-70
2022/11/08 08:28:59;;;;;;;8.60;4.03;;;11.60;99.90;;;12.01;84.45;100833.75;4872700;29;20451;-72
2022/11/08 08:31:29;;;;;;;7.10;3.80;;;11.80;99.90;;;12.10;83.51;100829.78;4879539;29;20465;-71
2022/11/08 08:33:58;;;;;;;8.10;4.33;;;11.90;99.90;;;12.11;84.11;100826.00;4879685;29;20418;-71
2022/11/08 08:36:26;;;;;;;11.33;4.90;;;11.90;99.90;;;12.25;83.49;100835.75;4889466;29;20458;-72
2022/11/08 08:38:55;;;;;;;9.07;3.90;;;12.00;99.90;;;12.44;82.00;100832.13;4889177;29;20454;-71
2022/11/08 08:41:24;;;;;;;7.53;3.10;;;12.20;99.90;;;12.56;81.67;100832.31;4879359;29;20450;-70
2022/11/08 08:43:52;;;;;;;4.30;3.33;;;12.30;99.90;;;12.55;81.18;100834.19;4876026;29;20438;-70
2022/11/08 08:46:21;;;;;;;8.13;3.70;;;12.30;99.90;;;12.63;80.91;100820.34;4889783;29;20458;-70
2022/11/08 08:48:51;;;;;;;5.60;3.87;;;12.40;99.90;;;12.84;79.71;100826.50;4884839;29;20473;-70
2022/11/08 08:51:20;;;;;;;4.80;2.77;;;;;;;12.81;79.67;100824.22;4879500;29;20483;-71
2022/11/08 08:53:49;;;;;;;6.20;2.83;;;;;;;12.82;79.62;100823.19;4886920;29;20443;-71
2022/11/08 08:56:18;;;;;;;4.73;2.70;;;;;;;12.88;79.32;100819.56;4881964;29;20442;-69
2022/11/08 08:58:48;;;;;;;5.73;3.20;;;;;;;13.18;78.50;100811.66;4876791;29;20673;-71
2022/11/08 09:01:37;;;;;;;6.60;3.50;;;;;;;13.28;77.57;100823.69;4876775;29;20496;-71
2022/11/08 09:04:07;;;;;;;6.60;3.13;;;;;;;13.32;77.35;100813.22;4877672;29;20917;-71
2022/11/08 09:06:36;;;;;;;9.03;3.43;;;;;;;13.53;76.70;100820.16;4872958;29;20814;-72
2022/11/08 09:09:05;;;;;;;6.13;2.80;;;;;;;13.71;76.00;100828.34;4884269;29;20435;-69
2022/11/08 09:11:34;;;;;;;7.80;2.77;;;;;;;13.68;75.25;100824.19;4874438;29;20449;-72
2022/11/08 09:14:03;;;;;;;5.17;2.90;;;;;;;13.66;75.59;100820.00;4881678;29;20816;-71
2022/11/08 09:16:32;;;;;;;3.43;2.33;;;;;;;13.80;74.83;100826.97;4889224;29;20477;-72
2022/11/08 09:19:00;;;;;;;7.67;3.03;;;;;;;13.60;75.07;100827.19;4879203;29;20851;-71
2022/11/08 09:21:31;;;;;;;8.70;4.03;;;;;;;13.64;75.23;100827.56;4889059;29;20442;-73
2022/11/08 09:24:00;;;;;;;6.70;3.07;;;;;;;13.85;74.99;100829.84;4887058;29;20413;-70
2022/11/08 09:26:29;;;;;;;7.70;3.17;;;;;;;13.89;74.49;100831.09;4896950;29;20453;-71
2022/11/08 09:28:59;;;;;;;3.67;2.63;;;;;;;14.14;73.64;100822.84;4895830;29;20449;-71
2022/11/08 09:31:28;;;;;;;3.97;3.07;;;;;;;13.94;73.89;100818.47;4893996;29;20804;-73
2022/11/08 09:33:57;;;;;;;5.03;3.03;;;;;;;13.99;73.91;100814.25;4879080;29;20480;-72
2022/11/08 09:36:26;;;;;;;5.83;2.67;;;;;;;14.15;72.93;100814.47;4879715;29;20517;-71
2022/11/08 09:38:56;;;;;;;8.43;3.07;;;;;;;14.27;72.50;100812.66;4885675;29;20433;-71
2022/11/08 09:41:44;;;;;;;11.40;3.03;;;;;;;14.25;72.47;100819.38;4868057;29;20449;-71
2022/11/08 09:44:35;;;;;;;11.47;2.83;;;;;;;14.33;72.36;100811.72;4878778;29;20418;-72
2022/11/08 09:47:10;;;;;;;4.67;2.80;;;;;;;14.55;71.94;100811.28;4870476;29;20490;-71
2022/11/08 09:49:45;;;;;;;4.43;2.43;;;;;;;14.78;71.02;100808.63;4882095;29;20978;-72
2022/11/08 09:52:21;;;;;;;8.43;2.93;;;;;;;14.89;70.09;100805.13;4860771;29;20505;-72
2022/11/08 09:54:55;;;;;;;8.90;3.47;;;;;;;14.96;69.41;100810.47;4892149;29;20461;-72
2022/11/08 09:57:32;;;;;;;8.23;3.87;;;;;;;15.02;69.68;100810.38;4876352;29;20458;-70
2022/11/08 10:00:04;;;;;;;4.70;3.17;;;;;;;15.17;68.91;100807.19;4868035;29;20450;-71
2022/11/08 10:02:36;;;;;;;5.53;2.43;;;;;;;15.49;68.27;100810.44;4892495;29;20456;-71
2022/11/08 10:05:09;;;;;;;7.03;2.63;;;;;;;15.45;67.50;100809.25;4881860;29;20764;-72
2022/11/08 10:07:45;;;;;;;7.30;2.20;;;;;;;15.62;67.67;100804.78;4882056;29;20915;-72
2022/11/08 10:10:43;;;;;;;9.03;5.87;;;;;;;15.68;67.07;100801.13;4887809;29;20434;-72
2022/11/08 10:13:22;;;;;;;9.43;3.53;;;;;;;15.76;66.59;100795.28;4875249;29;20518;-71
2022/11/08 10:16:00;;;;;;;6.90;1.90;;;;;;;15.63;66.43;100796.38;4883435;29;20824;-70
2022/11/08 10:18:48;;;;;;;7.93;2.40;;;;;;;15.74;66.55;100796.59;4867522;29;20473;-71
2022/11/08 10:21:31;;;;;;;4.17;2.30;;;;;;;15.61;66.61;100801.22;4877476;29;20702;-71
2022/11/08 10:24:04;;;;;;;6.83;2.77;;;;;;;15.61;66.84;100793.03;4891324;29;20438;-70
2022/11/08 10:26:41;;;;;;;5.87;2.97;;;;;;;15.54;66.53;100796.97;4888107;29;20878;-72
2022/11/08 10:29:18;;;;;;;3.60;2.13;;;;;;;15.47;66.90;100796.22;4881001;29;20439;-71
2022/11/08 10:31:48;;;;;;;6.20;2.40;;;;;;;15.65;66.42;100787.94;4880692;29;20467;-70
2022/11/08 10:34:22;;;;;;;2.53;1.50;;;;;;;15.86;65.95;100779.16;4884011;29;20463;-70
2022/11/08 10:36:58;;;;;;;4.27;2.50;;;;;;;15.98;65.56;100779.94;4894828;29;20469;-69
2022/11/08 10:39:30;;;;;;;4.90;2.17;;;;;;;16.20;64.66;100784.78;4876279;29;20448;-69
2022/11/08 10:42:06;;;;;;;7.70;2.80;;;;;;;16.31;63.61;100782.00;4888014;29;21012;-70
2022/11/08 10:44:36;;;;;;;2.73;2.23;;;;;;;16.29;63.76;100783.31;4874490;29;20450;-69
2022/11/08 10:47:07;;;;;;;4.00;1.73;;;;;;;16.17;64.05;100777.06;4880044;29;20451;-70
2022/11/08 10:49:39;;;;;;;6.20;2.40;;;;;;;16.17;64.09;100775.16;4888259;29;20471;-71
2022/11/08 10:52:18;;;;;;;2.80;1.57;;;;;;;16.16;63.96;100775.41;4882858;29;20482;-69
2022/11/08 10:54:49;;;;;;;4.83;2.50;;;;;;;16.21;64.18;100772.78;4882166;29;20438;-71
2022/11/08 10:57:25;;;;;;;3.83;2.80;;;;;;;16.38;64.12;100773.66;4890009;29;20808;-71
2022/11/08 10:59:56;;;;;;;6.83;2.80;;;;;;;16.52;63.74;100766.84;4893955;29;20409;-71
2022/11/08 11:02:28;;;;;;;8.93;2.20;;;;;;;16.57;62.84;100766.94;4882671;29;20432;-70
2022/11/08 11:05:24;;;;;;;6.60;1.90;;;;;;;16.36;63.31;100767.63;4885308;29;20487;-70